Time;durP1;ratioP1;P1;durP2;ratioP2;P2;SDS_P1;SDS_P2;PMS_P1;PMS_P2;Temp;Humidity;BMP_temperature;BMP_pressure;BME280_temperature;BME280_humidity;BME280_pressure;Samples;Min_cycle;Max_cycle;Signal;HPM_P1;HPM_P2
2023/03/05 00:00:47;;;;;;;0.10;0.10;;;;;;;14.22;47.00;102299.50;2105468;28;20063;-54
2023/03/05 00:01:50;;;;;;;0.08;0.08;;;;;;;14.21;46.91;102292.47;2106903;28;20055;-55
2023/03/05 00:02:53;;;;;;;0.10;0.10;;;;;;;14.20;46.54;102291.69;2110082;28;20039;-55
2023/03/05 00:03:55;;;;;;;0.10;0.10;;;;;;;14.20;46.94;102290.88;2108260;28;20083;-55
2023/03/05 00:04:58;;;;;;;0.10;0.10;;;;;;;14.20;46.70;102299.03;2107146;28;20101;-55
2023/03/05 00:06:00;;;;;;;0.10;0.10;;;;;;;14.22;46.90;102288.63;2108547;28;20047;-56
2023/03/05 00:07:04;;;;;;;0.00;0.00;;;;;;;14.22;47.00;102288.63;2105223;28;20048;-55
2023/03/05 00:08:06;;;;;;;0.10;0.10;;;;;;;14.23;46.58;102290.22;2108678;28;20520;-60
2023/03/05 00:09:09;;;;;;;0.10;0.10;;;;;;;14.22;46.95;102283.22;2105887;27;20458;-55
2023/03/05 00:10:11;;;;;;;0.10;0.10;;;;;;;14.23;46.49;102284.78;2104733;28;20048;-56
2023/03/05 00:11:14;;;;;;;0.10;0.10;;;;;;;14.23;46.99;102269.28;2108414;28;20047;-56
2023/03/05 00:12:16;;;;;;;0.10;0.10;;;;;;;14.23;46.99;102276.63;2104862;28;20408;-55
2023/03/05 00:13:19;;;;;;;0.10;0.10;;;;;;;14.23;46.27;102265.78;2105070;28;20108;-55
2023/03/05 00:14:21;;;;;;;0.10;0.10;;;;;;;14.24;47.14;102270.91;2104992;28;20059;-55
2023/03/05 00:15:24;;;;;;;0.10;0.10;;;;;;;14.23;46.83;102265.78;2106491;28;20686;-55
2023/03/05 00:16:28;;;;;;;0.10;0.10;;;;;;;14.25;46.57;102271.72;2106258;28;20048;-55
2023/03/05 00:17:30;;;;;;;0.10;0.10;;;;;;;14.24;46.91;102270.09;2106232;28;20139;-55
2023/03/05 00:18:33;;;;;;;0.10;0.10;;;;;;;14.24;46.80;102260.03;2106828;28;20059;-55
2023/03/05 00:19:36;;;;;;;0.10;0.10;;;;;;;14.24;46.90;102265.47;2105111;28;20067;-56
2023/03/05 00:20:37;;;;;;;0.10;0.10;;;;;;;14.25;46.84;102271.72;2108237;28;20096;-55
2023/03/05 00:21:42;;;;;;;0.20;0.20;;;;;;;14.27;46.85;102272.19;2106482;28;20097;-55
2023/03/05 00:22:44;;;;;;;0.10;0.10;;;;;;;14.25;46.87;102271.72;2108337;28;20459;-55
2023/03/05 00:23:47;;;;;;;0.10;0.10;;;;;;;14.27;46.58;102274.91;2105455;28;20117;-55
2023/03/05 00:24:50;;;;;;;0.10;0.10;;;;;;;14.27;46.61;102270.25;2106656;28;20056;-55
2023/03/05 00:25:52;;;;;;;0.10;0.10;;;;;;;14.27;46.71;102269.47;2108498;28;20901;-56
2023/03/05 00:26:55;;;;;;;0.10;0.10;;;;;;;14.27;46.90;102269.47;2104581;28;20063;-55
2023/03/05 00:27:57;;;;;;;0.10;0.10;;;;;;;14.27;46.47;102266.75;2105015;28;20119;-55
2023/03/05 00:29:00;;;;;;;0.10;0.10;;;;;;;14.28;46.26;102266.41;2108898;28;20050;-56
2023/03/05 00:30:02;;;;;;;0.03;0.03;;;;;;;14.27;47.00;102262.09;2103970;28;20051;-56
2023/03/05 00:31:05;;;;;;;0.10;0.10;;;;;;;14.28;46.85;102271.03;2106044;28;20100;-55
2023/03/05 00:32:09;;;;;;;0.10;0.10;;;;;;;14.29;46.53;102264.47;2110413;28;20130;-56
2023/03/05 00:33:12;;;;;;;0.10;0.10;;;;;;;14.29;46.54;102264.47;2104976;28;20047;-55
2023/03/05 00:34:17;;;;;;;0.03;0.03;;;;;;;14.29;46.53;102261.75;2104943;28;20052;-55
2023/03/05 00:35:20;;;;;;;0.10;0.10;;;;;;;14.28;47.07;102266.41;2106626;28;20059;-55
2023/03/05 00:36:23;;;;;;;0.10;0.10;;;;;;;14.28;47.08;102281.91;2108134;28;20083;-56
2023/03/05 00:37:26;;;;;;;0.10;0.10;;;;;;;14.28;46.64;102277.28;2107681;28;20059;-55
2023/03/05 00:38:28;;;;;;;0.10;0.10;;;;;;;14.29;46.46;102275.34;2108547;28;20056;-55
2023/03/05 00:39:31;;;;;;;0.10;0.10;;;;;;;14.29;47.06;102286.22;2104597;28;20055;-56
2023/03/05 00:40:35;;;;;;;0.10;0.10;;;;;;;14.30;46.67;102268.81;2108050;28;20118;-55
2023/03/05 00:41:39;;;;;;;0.10;0.10;;;;;;;14.27;47.11;102269.47;2105277;28;20100;-55
2023/03/05 00:42:40;;;;;;;0.10;0.10;;;;;;;14.29;46.73;102262.56;2104661;28;20055;-55
2023/03/05 00:43:44;;;;;;;0.10;0.10;;;;;;;14.29;47.03;102264.47;2105614;28;20044;-55
2023/03/05 00:44:47;;;;;;;0.10;0.10;;;;;;;14.31;47.31;102259.50;2106305;28;20532;-56
2023/03/05 00:45:48;;;;;;;0.10;0.10;;;;;;;14.31;46.84;102254.09;2104967;28;20121;-56
2023/03/05 00:46:51;;;;;;;0.20;0.20;;;;;;;14.30;47.27;102256.00;2107130;28;20568;-55
2023/03/05 00:47:55;;;;;;;0.10;0.10;;;;;;;14.32;46.88;102256.47;2108385;28;20128;-55
2023/03/05 00:48:58;;;;;;;0.10;0.10;;;;;;;14.31;47.04;102251.38;2104961;28;20157;-55
2023/03/05 00:50:01;;;;;;;0.10;0.10;;;;;;;14.32;47.08;102255.66;2105095;28;20479;-57
2023/03/05 00:51:04;;;;;;;0.10;0.10;;;;;;;14.32;46.71;102252.94;2106392;28;20052;-55
2023/03/05 00:52:06;;;;;;;0.10;0.10;;;;;;;14.32;47.28;102256.47;2105054;28;20055;-55
2023/03/05 00:53:08;;;;;;;0.10;0.10;;;;;;;14.32;47.22;102250.22;2107408;28;20039;-56
2023/03/05 00:54:10;;;;;;;0.10;0.10;;;;;;;14.32;46.50;102244.78;2106305;28;20481;-55
2023/03/05 00:55:13;;;;;;;0.10;0.10;;;;;;;14.32;47.00;102251.03;2109494;28;20055;-56
2023/03/05 00:56:15;;;;;;;0.10;0.10;;;;;;;14.32;46.72;102244.78;2105478;28;20126;-56
2023/03/05 00:57:18;;;;;;;0.10;0.10;;;;;;;14.33;46.85;102240.97;2106147;28;20052;-54
2023/03/05 00:58:20;;;;;;;0.10;0.10;;;;;;;14.33;47.14;102246.41;2105577;27;20055;-56
2023/03/05 00:59:23;;;;;;;0.10;0.10;;;;;;;14.32;46.61;102233.94;2106103;28;20105;-55
2023/03/05 01:00:25;;;;;;;0.10;0.10;;;;;;;14.33;47.09;102230.09;2104693;28;20082;-56
2023/03/05 01:01:28;;;;;;;0.10;0.10;;;;;;;14.33;46.71;102235.53;2104834;28;20052;-55
2023/03/05 01:02:30;;;;;;;0.10;0.10;;;;;;;14.32;47.03;102228.50;2106340;28;20056;-55
2023/03/05 01:03:37;;;;;;;0.10;0.10;;;;;;;14.34;46.68;102237.91;2111075;28;20040;-55
2023/03/05 01:04:39;;;;;;;0.10;0.10;;;;;;;14.33;46.98;102235.53;2110226;28;20055;-56
2023/03/05 01:05:43;;;;;;;0.10;0.10;;;;;;;14.34;47.11;102227.06;2106477;28;20136;-55
2023/03/05 01:06:45;;;;;;;0.10;0.10;;;;;;;14.34;47.15;102228.97;2108537;28;20135;-56
2023/03/05 01:07:52;;;;;;;0.10;0.10;;;;;;;14.34;47.14;102226.25;2107729;28;20047;-55
2023/03/05 01:08:55;;;;;;;0.10;0.10;;;;;;;14.33;47.11;102232.81;2104791;28;20058;-55
2023/03/05 01:09:58;;;;;;;0.10;0.10;;;;;;;14.33;47.15;102224.66;2105058;28;20474;-56
2023/03/05 01:11:00;;;;;;;0.10;0.10;;;;;;;14.34;47.02;102228.97;2104487;28;20129;-55
2023/03/05 01:12:03;;;;;;;0.10;0.10;;;;;;;14.34;46.92;102220.81;2106026;28;20059;-55
2023/03/05 01:13:05;;;;;;;0.10;0.10;;;;;;;14.34;47.19;102216.19;2105028;28;20052;-55
2023/03/05 01:14:08;;;;;;;0.10;0.10;;;;;;;14.34;47.22;102220.81;2105130;28;20428;-55
2023/03/05 01:15:10;;;;;;;0.20;0.20;;;;;;;14.33;47.19;102230.09;2107265;28;20048;-56
2023/03/05 01:16:13;;;;;;;0.10;0.10;;;;;;;14.34;46.89;102227.06;2109231;28;20421;-55
2023/03/05 01:17:15;;;;;;;0.10;0.10;;;;;;;14.35;47.20;102233.28;2109552;28;20270;-55
2023/03/05 01:18:19;;;;;;;0.10;0.10;;;;;;;14.36;47.08;102229.44;2110609;28;20729;-55
2023/03/05 01:19:23;;;;;;;0.10;0.10;;;;;;;14.35;46.88;102225.91;2105015;28;20047;-55
2023/03/05 01:20:26;;;;;;;0.10;0.10;;;;;;;14.34;46.76;102221.63;2104787;28;20455;-56
2023/03/05 01:21:27;;;;;;;0.10;0.10;;;;;;;14.34;47.29;102216.19;2105320;28;20059;-56
2023/03/05 01:22:30;;;;;;;0.10;0.10;;;;;;;14.35;47.30;102211.56;2107043;28;20052;-56
2023/03/05 01:23:34;;;;;;;0.10;0.10;;;;;;;14.35;47.17;102214.28;2107097;28;20052;-55
2023/03/05 01:24:37;;;;;;;0.10;0.10;;;;;;;14.35;46.84;102206.91;2110882;28;20044;-56
2023/03/05 01:25:39;;;;;;;0.10;0.10;;;;;;;14.35;47.33;102206.13;2103110;28;20412;-55
2023/03/05 01:26:43;;;;;;;0.13;0.13;;;;;;;14.35;46.59;102206.91;2108929;28;20099;-56
2023/03/05 01:27:45;;;;;;;0.10;0.10;;;;;;;14.35;47.12;102200.69;2104725;28;20067;-55
2023/03/05 01:28:48;;;;;;;0.10;0.10;;;;;;;14.36;47.13;102196.84;2104780;28;20074;-55
2023/03/05 01:29:50;;;;;;;0.10;0.10;;;;;;;14.36;46.78;102199.53;2103290;28;20403;-56
2023/03/05 01:30:53;;;;;;;0.10;0.10;;;;;;;14.36;46.81;102194.91;2104145;28;20191;-55
2023/03/05 01:31:55;;;;;;;0.13;0.13;;;;;;;14.36;47.08;102194.91;2105361;28;20048;-55
2023/03/05 01:32:58;;;;;;;0.10;0.10;;;;;;;14.37;46.86;102192.97;2104526;28;20052;-56
2023/03/05 01:34:00;;;;;;;0.10;0.10;;;;;;;14.36;47.04;102192.19;2111392;28;20048;-55
2023/03/05 01:35:06;;;;;;;0.10;0.10;;;;;;;14.37;46.78;102187.53;2110092;28;20055;-55
2023/03/05 01:36:13;;;;;;;0.10;0.10;;;;;;;14.36;47.19;102185.97;2108605;28;20048;-56
2023/03/05 01:37:16;;;;;;;0.10;0.10;;;;;;;14.35;47.22;102189.81;2108679;28;20485;-55
2023/03/05 01:38:18;;;;;;;0.10;0.10;;;;;;;14.35;47.28;102185.16;2105407;28;20051;-55
2023/03/05 01:39:21;;;;;;;0.10;0.10;;;;;;;14.37;47.22;102190.25;2104553;28;20078;-55
2023/03/05 01:40:25;;;;;;;0.10;0.10;;;;;;;14.36;46.97;102181.34;2110716;28;20100;-56
2023/03/05 01:41:28;;;;;;;0.10;0.10;;;;;;;14.36;47.21;102185.97;2106217;28;20492;-56
2023/03/05 01:42:30;;;;;;;0.10;0.10;;;;;;;14.36;47.18;102181.34;2104857;28;20056;-55
2023/03/05 01:43:33;;;;;;;0.10;0.10;;;;;;;14.37;47.03;102179.38;2104755;28;20657;-55
2023/03/05 01:44:36;;;;;;;0.10;0.10;;;;;;;14.36;47.26;102180.53;2104967;28;20062;-55
2023/03/05 01:45:39;;;;;;;0.10;0.10;;;;;;;14.32;47.20;102177.69;2105214;28;20056;-55
2023/03/05 01:46:41;;;;;;;0.20;0.20;;;;;;;14.36;46.98;102180.53;2104441;28;20048;-56
2023/03/05 01:47:44;;;;;;;0.10;0.10;;;;;;;14.37;47.07;102179.38;2105600;28;20380;-56
2023/03/05 01:48:50;;;;;;;0.10;0.10;;;;;;;14.37;46.89;102180.19;2110002;28;20059;-55
2023/03/05 01:49:54;;;;;;;0.10;0.10;;;;;;;14.37;46.97;102182.09;2109332;28;20130;-55
2023/03/05 01:50:57;;;;;;;0.10;0.10;;;;;;;14.36;47.21;102180.53;2104012;28;20052;-55
2023/03/05 01:52:05;;;;;;;0.10;0.10;;;;;;;14.37;46.94;102179.38;2105355;28;20047;-56
2023/03/05 01:53:07;;;;;;;0.10;0.10;;;;;;;14.36;47.00;102177.81;2104357;28;20052;-55
2023/03/05 01:54:13;;;;;;;0.10;0.10;;;;;;;14.37;46.96;102173.97;2104565;28;20132;-55
2023/03/05 01:55:20;;;;;;;0.10;0.10;;;;;;;14.37;47.15;102176.66;2110580;28;20059;-55
2023/03/05 01:56:23;;;;;;;0.10;0.10;;;;;;;14.33;47.43;102170.34;2106474;28;20104;-55
2023/03/05 01:57:30;;;;;;;0.10;0.10;;;;;;;14.36;47.32;102175.91;2105658;28;20060;-56
2023/03/05 01:58:33;;;;;;;0.10;0.10;;;;;;;14.35;47.60;102168.84;2105863;28;20135;-55
2023/03/05 01:59:37;;;;;;;0.10;0.10;;;;;;;14.37;46.86;102171.25;2105259;28;20047;-56
2023/03/05 02:00:45;;;;;;;0.10;0.10;;;;;;;14.35;46.77;102162.66;2106486;28;20051;-55
2023/03/05 02:01:52;;;;;;;0.10;0.10;;;;;;;14.35;47.01;102162.66;2104714;28;20114;-55
2023/03/05 02:02:57;;;;;;;0.10;0.10;;;;;;;14.32;46.70;102158.66;2110408;28;20059;-55
2023/03/05 02:04:00;;;;;;;0.10;0.10;;;;;;;14.36;46.92;102164.22;2107350;28;20056;-55
2023/03/05 02:05:07;;;;;;;0.10;0.10;;;;;;;14.36;47.16;102158.78;2106250;28;20051;-54
2023/03/05 02:06:10;;;;;;;0.10;0.10;;;;;;;14.36;47.18;102158.78;2106405;28;20083;-55
2023/03/05 02:07:14;;;;;;;0.10;0.10;;;;;;;14.36;46.97;102147.94;2107574;28;20055;-55
2023/03/05 02:08:18;;;;;;;0.10;0.10;;;;;;;14.33;47.22;102143.16;2103988;28;20044;-55
2023/03/05 02:09:22;;;;;;;0.10;0.10;;;;;;;14.36;46.87;102153.34;2111766;28;20054;-56
2023/03/05 02:10:27;;;;;;;0.10;0.10;;;;;;;14.37;47.19;102152.22;2106720;28;20048;-55
2023/03/05 02:11:30;;;;;;;0.10;0.10;;;;;;;14.35;47.39;102152.56;2107230;28;20088;-56
2023/03/05 02:12:32;;;;;;;0.10;0.10;;;;;;;14.36;47.54;102142.50;2104614;28;20404;-56
2023/03/05 02:13:39;;;;;;;0.10;0.10;;;;;;;14.36;46.79;102148.72;2104784;28;20048;-56
2023/03/05 02:14:44;;;;;;;0.10;0.10;;;;;;;14.34;47.07;102142.81;2104640;28;20172;-56
2023/03/05 02:15:48;;;;;;;0.10;0.10;;;;;;;14.35;47.46;102144.41;2109212;28;20055;-56
2023/03/05 02:16:50;;;;;;;0.13;0.13;;;;;;;14.36;47.31;102145.22;2106901;28;20413;-55
2023/03/05 02:17:53;;;;;;;0.10;0.10;;;;;;;14.37;47.06;102138.63;2109126;28;20052;-56
2023/03/05 02:18:55;;;;;;;0.10;0.10;;;;;;;14.38;46.98;102134.81;2105652;28;20048;-55
2023/03/05 02:20:05;;;;;;;0.10;0.10;;;;;;;14.36;47.19;102143.28;2104688;28;20044;-55
2023/03/05 02:21:09;;;;;;;0.10;0.10;;;;;;;14.35;47.32;102138.19;2104612;28;20625;-55
2023/03/05 02:22:14;;;;;;;0.10;0.10;;;;;;;14.36;47.62;102132.44;2107446;28;20051;-56
2023/03/05 02:23:17;;;;;;;0.10;0.10;;;;;;;14.36;47.02;102137.06;2110007;28;20524;-56
2023/03/05 02:24:34;;;;;;;0.10;0.10;;;;;;;14.31;46.94;102139.97;2105245;28;20060;-56
2023/03/05 02:25:36;;;;;;;0.10;0.10;;;;;;;14.33;46.90;102130.38;2108462;28;20052;-55
2023/03/05 02:26:41;;;;;;;0.20;0.20;;;;;;;14.35;47.50;102128.09;2104960;28;20137;-55
2023/03/05 02:27:53;;;;;;;0.00;0.00;;;;;;;14.35;47.19;102121.91;2104750;28;20051;-55
2023/03/05 02:29:01;;;;;;;0.10;0.10;;;;;;;14.35;47.61;102130.03;2103396;28;20658;-55
2023/03/05 02:30:04;;;;;;;0.10;0.10;;;;;;;14.28;47.48;102110.75;2103999;28;20052;-55
2023/03/05 02:31:09;;;;;;;0.10;0.10;;;;;;;14.36;47.06;102121.56;2104144;28;20381;-55
2023/03/05 02:32:12;;;;;;;0.10;0.10;;;;;;;14.36;47.10;102126.19;2107151;28;20047;-56
2023/03/05 02:33:16;;;;;;;0.10;0.10;;;;;;;14.36;47.72;102120.75;2106067;28;20698;-55
2023/03/05 02:34:18;;;;;;;0.13;0.13;;;;;;;14.35;46.98;102117.25;2104855;28;20045;-56
2023/03/05 02:35:21;;;;;;;0.10;0.10;;;;;;;14.36;47.65;102115.31;2106680;28;20052;-55
2023/03/05 02:36:25;;;;;;;0.10;0.10;;;;;;;14.37;47.28;102111.47;2104749;28;20798;-55
2023/03/05 02:37:29;;;;;;;0.10;0.10;;;;;;;14.36;47.12;102120.75;2105629;28;20097;-54
2023/03/05 02:38:32;;;;;;;0.10;0.10;;;;;;;14.37;47.13;102115.00;2104199;28;20059;-55
2023/03/05 02:39:35;;;;;;;0.10;0.10;;;;;;;14.38;47.36;102113.06;2107405;28;20048;-56
2023/03/05 02:40:37;;;;;;;0.10;0.10;;;;;;;14.37;46.79;102111.47;2106723;28;20416;-55
2023/03/05 02:41:39;;;;;;;0.10;0.10;;;;;;;14.38;46.98;102107.63;2106882;28;20039;-55
2023/03/05 02:42:42;;;;;;;0.10;0.10;;;;;;;14.38;47.63;102107.63;2104283;28;20052;-55
2023/03/05 02:43:47;;;;;;;0.10;0.10;;;;;;;14.38;47.31;102102.97;2108720;28;20055;-55
2023/03/05 02:44:48;;;;;;;0.10;0.10;;;;;;;14.37;47.32;102095.97;2098095;28;20049;-55
2023/03/05 02:45:51;;;;;;;0.10;0.10;;;;;;;14.38;47.35;102102.22;2097533;28;20063;-56
2023/03/05 02:46:54;;;;;;;0.10;0.10;;;;;;;14.38;47.35;102099.50;2096338;28;20097;-55
2023/03/05 02:47:57;;;;;;;0.10;0.10;;;;;;;14.39;47.47;102103.78;2110669;28;20052;-56
2023/03/05 02:48:59;;;;;;;0.10;0.10;;;;;;;14.38;46.95;102102.22;2113674;27;20146;-55
2023/03/05 02:50:02;;;;;;;0.20;0.20;;;;;;;14.38;47.39;102102.22;2112088;28;20917;-56
2023/03/05 02:51:06;;;;;;;0.10;0.10;;;;;;;14.39;47.08;102099.16;2108322;28;20056;-55
2023/03/05 02:52:10;;;;;;;0.10;0.10;;;;;;;14.40;47.13;102099.94;2107275;28;20051;-56
2023/03/05 02:53:12;;;;;;;0.10;0.10;;;;;;;14.39;47.39;102103.78;2109036;28;20048;-55
2023/03/05 02:54:14;;;;;;;0.10;0.10;;;;;;;14.39;47.38;102101.06;2107427;28;20054;-55
2023/03/05 02:55:17;;;;;;;0.10;0.10;;;;;;;14.40;47.07;102099.94;2105409;28;20105;-56
2023/03/05 02:56:19;;;;;;;0.20;0.20;;;;;;;14.39;47.17;102109.22;2107325;28;20048;-56
2023/03/05 02:57:22;;;;;;;0.10;0.10;;;;;;;14.39;47.45;102101.88;2095904;28;20486;-55
2023/03/05 02:58:25;;;;;;;0.10;0.10;;;;;;;14.39;47.25;102095.63;2102923;28;20201;-54
2023/03/05 02:59:26;;;;;;;0.10;0.10;;;;;;;14.39;47.16;102090.19;2102216;28;20128;-55
2023/03/05 03:00:30;;;;;;;0.10;0.10;;;;;;;14.39;47.51;102098.34;2109187;28;20051;-55
2023/03/05 03:01:31;;;;;;;0.10;0.10;;;;;;;14.38;47.00;102089.41;2108594;28;20055;-55
2023/03/05 03:02:34;;;;;;;0.10;0.10;;;;;;;14.40;47.12;102099.94;2108863;28;20048;-55
2023/03/05 03:03:36;;;;;;;0.10;0.10;;;;;;;14.40;47.00;102097.22;2105050;28;20063;-59
2023/03/05 03:04:41;;;;;;;0.05;0.05;;;;;;;14.40;47.16;102094.50;2104371;28;20052;-56
2023/03/05 03:05:42;;;;;;;0.10;0.10;;;;;;;14.40;47.17;102089.06;2103865;28;20045;-55
2023/03/05 03:06:45;;;;;;;0.10;0.10;;;;;;;14.40;47.07;102083.63;2104675;28;20051;-56
2023/03/05 03:07:49;;;;;;;0.10;0.10;;;;;;;14.39;47.46;102082.84;2104219;28;20113;-56
2023/03/05 03:08:51;;;;;;;0.10;0.10;;;;;;;14.38;47.29;102081.25;2112130;28;20075;-55
2023/03/05 03:09:53;;;;;;;0.10;0.10;;;;;;;14.40;47.52;102079.00;2104159;28;20056;-55
2023/03/05 03:10:56;;;;;;;0.10;0.10;;;;;;;14.40;47.02;102078.19;2105984;28;20054;-56
2023/03/05 03:11:58;;;;;;;0.10;0.10;;;;;;;14.38;46.95;102070.38;2105218;28;20496;-55
2023/03/05 03:13:01;;;;;;;0.13;0.13;;;;;;;14.40;47.46;102075.47;2103879;28;20056;-56
2023/03/05 03:14:03;;;;;;;0.10;0.10;;;;;;;14.40;46.96;102070.84;2104259;28;20052;-55
2023/03/05 03:15:07;;;;;;;0.10;0.10;;;;;;;14.41;47.29;102071.66;2104232;28;20527;-55
2023/03/05 03:16:11;;;;;;;0.05;0.05;;;;;;;14.41;47.42;102074.38;2105915;28;20496;-56
2023/03/05 03:17:15;;;;;;;0.03;0.03;;;;;;;14.37;47.11;102062.56;2110043;28;20680;-56
2023/03/05 03:18:17;;;;;;;0.13;0.13;;;;;;;14.38;47.39;102062.22;2107300;28;20051;-55
2023/03/05 03:19:20;;;;;;;0.10;0.10;;;;;;;14.40;46.92;102061.88;2106478;28;20051;-55
2023/03/05 03:20:22;;;;;;;0.10;0.10;;;;;;;14.40;47.00;102059.97;2103502;28;20048;-56
2023/03/05 03:21:26;;;;;;;0.10;0.10;;;;;;;14.41;47.17;102060.78;2107192;28;20104;-55
2023/03/05 03:22:28;;;;;;;0.10;0.10;;;;;;;14.40;47.36;102061.88;2104022;28;20043;-55
2023/03/05 03:23:33;;;;;;;0.10;0.10;;;;;;;14.41;46.99;102058.84;2103988;28;20055;-55
2023/03/05 03:24:36;;;;;;;0.10;0.10;;;;;;;14.38;47.44;102054.06;2104215;28;20366;-55
2023/03/05 03:25:39;;;;;;;0.10;0.10;;;;;;;14.40;47.54;102051.81;2106305;28;20044;-55
2023/03/05 03:26:40;;;;;;;0.10;0.10;;;;;;;14.41;47.35;102055.34;2109820;28;20059;-55
2023/03/05 03:27:43;;;;;;;0.10;0.10;;;;;;;14.41;47.37;102052.63;2108355;28;20104;-55
2023/03/05 03:28:46;;;;;;;0.10;0.10;;;;;;;14.40;47.17;102051.81;2108595;28;20123;-55
2023/03/05 03:29:48;;;;;;;0.20;0.20;;;;;;;14.42;47.09;102054.19;2103292;28;20048;-58
2023/03/05 03:30:50;;;;;;;0.10;0.10;;;;;;;14.41;46.95;102052.63;2103970;28;20073;-55
2023/03/05 03:31:53;;;;;;;0.15;0.15;;;;;;;14.41;47.06;102058.84;2103945;28;20178;-56
2023/03/05 03:32:55;;;;;;;0.10;0.10;;;;;;;14.40;47.68;102051.81;2105513;28;20542;-55
2023/03/05 03:33:58;;;;;;;0.10;0.10;;;;;;;14.42;47.21;102059.63;2108928;28;20492;-55
2023/03/05 03:35:00;;;;;;;0.10;0.10;;;;;;;14.41;47.03;102052.63;2107293;28;20504;-55
2023/03/05 03:36:04;;;;;;;0.10;0.10;;;;;;;14.40;46.97;102054.53;2110237;28;20059;-54
2023/03/05 03:37:07;;;;;;;0.10;0.10;;;;;;;14.41;47.11;102058.06;2106632;28;20159;-56
2023/03/05 03:38:10;;;;;;;0.10;0.10;;;;;;;14.41;47.05;102052.63;2105390;28;20047;-55
2023/03/05 03:39:16;;;;;;;0.10;0.10;;;;;;;14.42;47.47;102054.19;2112079;28;20051;-55
2023/03/05 03:40:18;;;;;;;0.10;0.10;;;;;;;14.41;47.07;102050.69;2106130;28;20056;-55
2023/03/05 03:41:20;;;;;;;0.10;0.10;;;;;;;14.41;47.48;102055.34;2108138;28;20048;-56
2023/03/05 03:42:23;;;;;;;0.10;0.10;;;;;;;14.41;47.35;102053.41;2108748;28;20051;-55
2023/03/05 03:43:26;;;;;;;0.10;0.10;;;;;;;14.42;47.09;102048.75;2110462;28;20048;-55
2023/03/05 03:44:28;;;;;;;0.10;0.10;;;;;;;14.41;47.48;102053.41;2110479;28;20082;-55
2023/03/05 03:45:31;;;;;;;0.10;0.10;;;;;;;14.42;47.35;102043.34;2106064;28;20105;-56
2023/03/05 03:46:33;;;;;;;0.10;0.10;;;;;;;14.41;47.45;102047.97;2105161;28;20104;-54
2023/03/05 03:47:36;;;;;;;0.10;0.10;;;;;;;14.42;47.20;102043.34;2105499;28;20077;-55
2023/03/05 03:48:38;;;;;;;0.10;0.10;;;;;;;14.42;47.03;102040.63;2105263;28;20060;-55
2023/03/05 03:49:41;;;;;;;0.10;0.10;;;;;;;14.42;46.70;102027.03;2106473;27;20060;-55
2023/03/05 03:50:43;;;;;;;0.10;0.10;;;;;;;14.41;47.29;102034.38;2105326;28;20056;-55
2023/03/05 03:51:46;;;;;;;0.10;0.10;;;;;;;14.41;47.33;102025.44;2107462;28;20481;-55
2023/03/05 03:52:48;;;;;;;0.10;0.10;;;;;;;14.41;47.34;102030.88;2110548;28;20058;-55
2023/03/05 03:53:51;;;;;;;0.10;0.10;;;;;;;14.42;47.17;102033.25;2105168;28;20485;-56
2023/03/05 03:55:00;;;;;;;0.10;0.10;;;;;;;14.43;47.51;102028.63;2107119;27;20060;-55
2023/03/05 03:56:03;;;;;;;0.10;0.10;;;;;;;14.40;47.02;102032.81;2108037;28;20078;-55
2023/03/05 03:57:05;;;;;;;0.10;0.10;;;;;;;14.41;47.42;102022.72;2105428;28;20104;-55
2023/03/05 03:58:08;;;;;;;0.10;0.10;;;;;;;14.40;47.62;102029.28;2105149;28;20051;-55
2023/03/05 03:59:11;;;;;;;0.10;0.10;;;;;;;14.42;47.14;102027.03;2105317;28;20519;-55
2023/03/05 04:00:18;;;;;;;0.10;0.10;;;;;;;14.42;47.03;102021.59;2105312;28;20052;-57
2023/03/05 04:01:21;;;;;;;0.10;0.10;;;;;;;14.41;47.26;102022.72;2108771;28;20599;-55
2023/03/05 04:02:24;;;;;;;0.10;0.10;;;;;;;14.41;47.64;102020.00;2105611;28;20048;-56
2023/03/05 04:03:26;;;;;;;0.10;0.10;;;;;;;14.40;47.22;102023.84;2107282;28;20676;-55
2023/03/05 04:04:29;;;;;;;0.10;0.10;;;;;;;14.42;47.22;102016.16;2111839;28;20051;-56
2023/03/05 04:05:31;;;;;;;0.13;0.13;;;;;;;14.41;47.41;102025.44;2105735;28;20052;-55
2023/03/05 04:06:34;;;;;;;0.10;0.10;;;;;;;14.41;47.08;102025.44;2105239;28;20101;-56
2023/03/05 04:07:36;;;;;;;0.10;0.10;;;;;;;14.41;47.13;102025.44;2105716;28;20067;-55
2023/03/05 04:08:39;;;;;;;0.10;0.10;;;;;;;14.38;47.20;102015.25;2105505;28;20056;-56
2023/03/05 04:09:40;;;;;;;0.10;0.10;;;;;;;14.42;47.55;102027.03;2105116;28;20052;-56
2023/03/05 04:10:45;;;;;;;0.10;0.10;;;;;;;14.43;47.16;102013.09;2109479;28;20139;-55
2023/03/05 04:11:46;;;;;;;0.13;0.13;;;;;;;14.41;47.26;102017.31;2105035;28;20519;-55
2023/03/05 04:12:49;;;;;;;0.10;0.10;;;;;;;14.42;47.37;102016.16;2105209;28;20500;-55
2023/03/05 04:13:51;;;;;;;0.10;0.10;;;;;;;14.42;47.33;102010.72;2106438;28;20100;-56
2023/03/05 04:14:55;;;;;;;0.10;0.10;;;;;;;14.42;47.48;102021.59;2105345;28;20122;-56
2023/03/05 04:15:57;;;;;;;0.10;0.10;;;;;;;14.41;47.04;102018.06;2105390;28;20093;-55
2023/03/05 04:17:00;;;;;;;0.10;0.10;;;;;;;14.41;47.01;102015.34;2104755;28;20473;-56
2023/03/05 04:18:02;;;;;;;0.10;0.10;;;;;;;14.42;47.24;102010.72;2105933;28;20062;-55
2023/03/05 04:19:05;;;;;;;0.10;0.10;;;;;;;14.42;47.59;102016.16;2110169;28;20051;-55
2023/03/05 04:20:09;;;;;;;0.10;0.10;;;;;;;14.43;47.12;102015.06;2105521;28;20047;-55
2023/03/05 04:21:12;;;;;;;0.10;0.10;;;;;;;14.41;47.48;102011.88;2107187;28;20047;-55
2023/03/05 04:22:15;;;;;;;0.10;0.10;;;;;;;14.41;47.37;102015.34;2110659;28;20062;-56
2023/03/05 04:23:18;;;;;;;0.10;0.10;;;;;;;14.41;47.24;102004.50;2105205;28;20096;-55
2023/03/05 04:24:20;;;;;;;0.10;0.10;;;;;;;14.42;47.22;102005.28;2104723;28;20101;-56
2023/03/05 04:25:23;;;;;;;0.10;0.10;;;;;;;14.43;47.50;102009.63;2106328;28;20394;-55
2023/03/05 04:26:26;;;;;;;0.10;0.10;;;;;;;14.42;47.13;102006.09;2105137;28;20056;-56
2023/03/05 04:27:29;;;;;;;0.10;0.10;;;;;;;14.42;47.67;102005.28;2105735;28;20056;-55
2023/03/05 04:28:31;;;;;;;0.10;0.10;;;;;;;14.42;47.32;101997.94;2110032;28;20054;-55
2023/03/05 04:29:35;;;;;;;0.10;0.10;;;;;;;14.41;47.53;102001.78;2104617;28;20569;-56
2023/03/05 04:30:37;;;;;;;0.10;0.10;;;;;;;14.42;47.10;101999.84;2105667;28;20105;-55
2023/03/05 04:31:40;;;;;;;0.10;0.10;;;;;;;14.42;47.14;101999.84;2105325;28;20105;-56
2023/03/05 04:32:42;;;;;;;0.10;0.10;;;;;;;14.42;47.05;101994.41;2105321;28;20053;-56
2023/03/05 04:33:45;;;;;;;0.10;0.10;;;;;;;14.42;47.41;101994.41;2106083;28;20071;-56
2023/03/05 04:34:47;;;;;;;0.08;0.08;;;;;;;14.42;47.31;101994.41;2105350;28;20059;-56
2023/03/05 04:35:49;;;;;;;0.10;0.10;;;;;;;14.42;47.23;101999.84;2109220;28;20052;-55
2023/03/05 04:36:51;;;;;;;0.10;0.10;;;;;;;14.42;47.33;101994.41;2108413;28;20090;-56
2023/03/05 04:37:54;;;;;;;0.10;0.10;;;;;;;14.42;47.13;102005.28;2100319;28;20060;-55
2023/03/05 04:38:56;;;;;;;0.00;0.00;;;;;;;14.42;47.29;101999.84;2098544;28;20445;-56
2023/03/05 04:39:59;;;;;;;0.10;0.10;;;;;;;14.42;47.19;102003.38;2110109;28;20056;-55
2023/03/05 04:41:01;;;;;;;0.10;0.10;;;;;;;14.42;47.44;102003.38;2112107;28;20059;-55
2023/03/05 04:42:05;;;;;;;0.10;0.10;;;;;;;14.43;47.25;101993.31;2109447;28;20070;-55
2023/03/05 04:43:07;;;;;;;0.10;0.10;;;;;;;14.41;47.18;101988.19;2108580;28;20048;-55
2023/03/05 04:44:10;;;;;;;0.10;0.10;;;;;;;14.42;47.17;101989.78;2110314;28;20404;-55
2023/03/05 04:45:12;;;;;;;0.10;0.10;;;;;;;14.42;47.05;101994.41;2106947;28;20101;-55
2023/03/05 04:46:15;;;;;;;0.10;0.10;;;;;;;14.43;47.35;101996.03;2111146;28;20063;-56
2023/03/05 04:47:17;;;;;;;0.00;0.00;;;;;;;14.43;47.17;101991.38;2106617;28;20396;-56
2023/03/05 04:48:20;;;;;;;0.10;0.10;;;;;;;14.42;47.24;101989.78;2104782;28;20051;-56
2023/03/05 04:49:22;;;;;;;0.10;0.10;;;;;;;14.42;47.41;101992.50;2104993;28;20048;-55
2023/03/05 04:50:25;;;;;;;0.10;0.10;;;;;;;14.41;47.27;101981.97;2109055;28;20561;-56
2023/03/05 04:51:28;;;;;;;0.10;0.10;;;;;;;14.42;47.56;101984.34;2109069;28;20096;-55
2023/03/05 04:52:30;;;;;;;0.10;0.10;;;;;;;14.40;47.18;101986.63;2105536;28;20055;-55
2023/03/05 04:53:34;;;;;;;0.10;0.10;;;;;;;14.43;47.42;101987.88;2106672;28;20077;-56